Charles W. Baker (2M8)
Millington, TN
Field Elevation: 247
Lat: 35°16.74N  Long: 89°55.89W
CTAF/Unicom Freq: 122.8000
   
     For Weather-by-Phone, call 901-873-0903
Weather Advisories
2018-06-23   21:47 Z
Altimeter 29.80" Hg
Wind 250° @ 10 KT
Gusts 15 KT
Visibility 10 SM
Ceiling CLR
Temperature 32° C (90° F)
Dewpoint 22° C (72° F)
Relative Humidity 56%
Density Altitude 2,400 feet
Condensation Altitude 5,200 feet
Heat Index: 36° C (97° F)
Wind and Runways
Indicated Runway = 18
Headwind = 3 kt
Crosswind = 9 kt
History
 
 
 
More Info
NOAA Forecast
 
 
About Us
Belfort Instrument
 
 
FAA Disclaimer: The data displayed is for advisory purposes only and is not to be used for flight planning or operations. For official data, please call 901-873-0903 to hear the current automated AWOS voice message.
  METAR 2M8 232147Z AUTO 25010G15KT 10 SM CLR 32/22 A2980